CheckWX is a tool to help pilots better visualize weather data.  It is not intended as a substitute for an official pre-flight weather briefing.

08:04:39 UTC

ETHN TAF
Niederstetten Airport
Niederstetten, Germany
TAF ETHN 190510Z 1906/1915 36005KT 9999 NSW FEW020 BKN060 PROB30 1906/1908 VRB03KT 0500 FZFG VV001

Mar-19@
06:00 UTC

Mar-19 @ 06:00 UTC

Mar-19@
15:00 UTC

Mar-19 @ 15:00 UTC

TAF ETHN 190510Z 1906/1915 36005KT 9999 NSW FEW020 BKN060
Wind
  • 360° at 5 KTS
Conditions
No significant weather
Cloud Levels
  • Few at 2,000' AGL
  • Broken at 6,000' AGL

Mar-19@
06:00 UTC

Mar-19 @ 06:00 UTC

Mar-19@
08:00 UTC

Mar-19 @ 08:00 UTC

PROB30 1906/1908 VRB03KT 0500 FZFG VV001

Expired

Wind
  • Variable at 3 KTS
Conditions
Freezing Fog
Cloud Levels
  • Vertical visibility at 100' AGL